Time,TemperatureF,DewpointF,PressureIn,WindDirection,WindDirectionDegrees,WindSpeedMPH,WindSpeedGustMPH,Humidity,HourlyPrecipIn,Conditions,Clouds,dailyrainin,SolarRadiationWatts/m^2,SoftwareType,DateUTC
2013-12-17 00:01:00,55.7,32.0,30.14,NE,42,0.0,0.0,40,0.00,,,0.00,0,weatherlink.com 1.10,2013-12-17 08:01:00,
2013-12-17 00:16:00,55.5,33.0,30.14,NE,44,0.0,0.0,42,0.00,,,0.00,0,weatherlink.com 1.10,2013-12-17 08:16:00,
2013-12-17 00:31:00,53.8,37.0,30.14,East,99,0.0,0.0,54,0.00,,,0.00,0,weatherlink.com 1.10,2013-12-17 08:31:00,
2013-12-17 00:46:00,52.8,34.0,30.14,NE,40,0.0,0.0,50,0.00,,,0.00,0,weatherlink.com 1.10,2013-12-17 08:46:00,
2013-12-17 01:01:00,53.0,34.0,30.14,NE,40,0.0,0.0,48,0.00,,,0.00,0,weatherlink.com 1.10,2013-12-17 09:01:00,
2013-12-17 01:16:00,53.5,34.0,30.14,NE,40,0.0,0.0,47,0.00,,,0.00,0,weatherlink.com 1.10,2013-12-17 09:16:00,
2013-12-17 01:31:00,54.1,33.0,30.14,WNW,298,0.0,0.0,45,0.00,,,0.00,0,weatherlink.com 1.10,2013-12-17 09:31:00,
2013-12-17 01:46:00,55.0,35.0,30.14,SE,131,0.0,0.0,47,0.00,,,0.00,0,weatherlink.com 1.10,2013-12-17 09:46:00,
2013-12-17 02:01:00,55.7,36.0,30.14,ESE,107,2.0,7.0,47,0.00,,,0.00,0,weatherlink.com 1.10,2013-12-17 10:01:00,
2013-12-17 02:16:00,56.2,36.0,30.14,ESE,122,1.0,9.0,47,0.00,,,0.00,0,weatherlink.com 1.10,2013-12-17 10:16:00,
2013-12-17 02:31:00,53.9,36.0,30.14,ESE,107,1.0,3.0,52,0.00,,,0.00,0,weatherlink.com 1.10,2013-12-17 10:31:00,
2013-12-17 02:46:00,54.8,36.0,30.14,ESE,119,4.0,10.0,50,0.00,,,0.00,0,weatherlink.com 1.10,2013-12-17 10:46:00,
2013-12-17 03:01:00,53.8,38.0,30.14,SSW,200,0.0,9.0,55,0.00,,,0.00,0,weatherlink.com 1.10,2013-12-17 11:01:00,
2013-12-17 03:16:00,53.1,37.0,30.14,NW,316,0.0,4.0,54,0.00,,,0.00,0,weatherlink.com 1.10,2013-12-17 11:16:00,
2013-12-17 03:31:00,54.0,36.0,30.14,NW,309,0.0,2.0,50,0.00,,,0.00,0,weatherlink.com 1.10,2013-12-17 11:31:00,
2013-12-17 03:46:00,54.3,36.0,30.13,SSE,156,2.0,5.0,50,0.00,,,0.00,0,weatherlink.com 1.10,2013-12-17 11:46:00,
2013-12-17 04:01:00,54.3,35.0,30.13,ESE,103,2.0,9.0,48,0.00,,,0.00,0,weatherlink.com 1.10,2013-12-17 12:01:00,
2013-12-17 04:16:00,54.4,35.0,30.13,SE,146,4.0,7.0,49,0.00,,,0.00,0,weatherlink.com 1.10,2013-12-17 12:16:00,
2013-12-17 04:31:00,54.6,36.0,30.13,ESE,116,3.0,6.0,50,0.00,,,0.00,0,weatherlink.com 1.10,2013-12-17 12:31:00,
2013-12-17 04:46:00,54.6,36.0,30.13,NW,326,2.0,8.0,50,0.00,,,0.00,0,weatherlink.com 1.10,2013-12-17 12:46:00,
2013-12-17 05:01:00,54.5,36.0,30.12,NE,42,1.0,8.0,51,0.00,,,0.00,0,weatherlink.com 1.10,2013-12-17 13:01:00,
2013-12-17 05:16:00,54.6,37.0,30.13,SE,136,2.0,8.0,52,0.00,,,0.00,0,weatherlink.com 1.10,2013-12-17 13:16:00,
2013-12-17 05:31:00,54.4,36.0,30.13,ESE,121,8.0,13.0,51,0.00,,,0.00,0,weatherlink.com 1.10,2013-12-17 13:31:00,
2013-12-17 05:46:00,54.8,37.0,30.13,ESE,116,4.0,10.0,51,0.00,,,0.00,0,weatherlink.com 1.10,2013-12-17 13:46:00,
2013-12-17 06:01:00,54.7,36.0,30.13,ESE,111,1.0,5.0,50,0.00,,,0.00,0,weatherlink.com 1.10,2013-12-17 14:01:00,
2013-12-17 06:16:00,54.9,37.0,30.13,East,100,5.0,10.0,51,0.00,,,0.00,0,weatherlink.com 1.10,2013-12-17 14:16:00,
2013-12-17 06:31:00,54.7,37.0,30.13,ESE,103,3.0,7.0,51,0.00,,,0.00,0,weatherlink.com 1.10,2013-12-17 14:31:00,
2013-12-17 06:46:00,52.8,37.0,30.14,SSE,151,0.0,1.0,56,0.00,,,0.00,0,weatherlink.com 1.10,2013-12-17 14:46:00,
2013-12-17 07:01:00,53.5,37.0,30.14,SE,142,3.0,6.0,54,0.00,,,0.00,0,weatherlink.com 1.10,2013-12-17 15:01:00,
2013-12-17 07:16:00,54.1,37.0,30.14,SE,128,4.0,8.0,53,0.00,,,0.00,0,weatherlink.com 1.10,2013-12-17 15:16:00,
2013-12-17 07:31:00,53.6,38.0,30.14,ESE,121,0.0,7.0,56,0.00,,,0.00,0,weatherlink.com 1.10,2013-12-17 15:31:00,
2013-12-17 07:47:00,50.6,39.0,30.15,SSE,148,0.0,1.0,64,0.00,,,0.00,0,weatherlink.com 1.10,2013-12-17 15:47:00,
2013-12-17 08:02:00,49.8,39.0,30.16,SSE,148,0.0,1.0,66,0.00,,,0.00,0,weatherlink.com 1.10,2013-12-17 16:02:00,
2013-12-17 08:17:00,52.0,38.0,30.15,SSE,148,0.0,2.0,60,0.00,,,0.00,0,weatherlink.com 1.10,2013-12-17 16:17:00,
2013-12-17 08:32:00,53.6,38.0,30.16,SSW,207,0.0,0.0,57,0.00,,,0.00,0,weatherlink.com 1.10,2013-12-17 16:32:00,
2013-12-17 08:47:00,54.0,41.0,30.16,SSE,159,0.0,1.0,61,0.00,,,0.00,0,weatherlink.com 1.10,2013-12-17 16:47:00,
2013-12-17 09:02:00,53.4,42.0,30.16,South,178,0.0,1.0,65,0.00,,,0.00,0,weatherlink.com 1.10,2013-12-17 17:02:00,
2013-12-17 09:17:00,53.7,42.0,30.17,SSE,164,0.0,1.0,65,0.00,,,0.00,0,weatherlink.com 1.10,2013-12-17 17:17:00,
2013-12-17 09:32:00,54.5,42.0,30.17,SSE,150,0.0,0.0,63,0.00,,,0.00,0,weatherlink.com 1.10,2013-12-17 17:32:00,
2013-12-17 09:47:00,56.2,43.0,30.17,SSE,161,0.0,2.0,61,0.00,,,0.00,0,weatherlink.com 1.10,2013-12-17 17:47:00,
2013-12-17 10:02:00,57.1,43.0,30.17,SW,226,0.0,3.0,60,0.00,,,0.00,0,weatherlink.com 1.10,2013-12-17 18:02:00,
2013-12-17 10:17:00,58.3,43.0,30.16,SSE,163,0.0,2.0,58,0.00,,,0.00,0,weatherlink.com 1.10,2013-12-17 18:17:00,
2013-12-17 10:32:00,58.4,44.0,30.16,WSW,242,1.0,2.0,59,0.00,,,0.00,0,weatherlink.com 1.10,2013-12-17 18:32:00,
2013-12-17 10:47:00,59.3,44.0,30.16,SW,234,1.0,1.0,58,0.00,,,0.00,0,weatherlink.com 1.10,2013-12-17 18:47:00,
2013-12-17 11:02:00,60.1,44.0,30.15,SSE,150,0.0,2.0,56,0.00,,,0.00,0,weatherlink.com 1.10,2013-12-17 19:02:00,
2013-12-17 11:17:00,60.2,44.0,30.14,SSW,194,0.0,2.0,56,0.00,,,0.00,0,weatherlink.com 1.10,2013-12-17 19:17:00,
2013-12-17 11:32:00,61.3,44.0,30.13,WNW,286,0.0,2.0,54,0.00,,,0.00,0,weatherlink.com 1.10,2013-12-17 19:32:00,
2013-12-17 11:47:00,63.3,44.0,30.12,SE,126,1.0,7.0,49,0.00,,,0.00,0,weatherlink.com 1.10,2013-12-17 19:47:00,
2013-12-17 12:02:00,63.7,44.0,30.11,SSE,148,0.0,4.0,49,0.00,,,0.00,0,weatherlink.com 1.10,2013-12-17 20:02:00,
2013-12-17 12:17:00,63.1,44.0,30.10,South,188,0.0,2.0,51,0.00,,,0.00,0,weatherlink.com 1.10,2013-12-17 20:17:00,
2013-12-17 12:32:00,63.7,45.0,30.09,SE,145,0.0,3.0,50,0.00,,,0.00,0,weatherlink.com 1.10,2013-12-17 20:32:00,
2013-12-17 12:47:00,64.4,44.0,30.08,SSW,210,2.0,4.0,48,0.00,,,0.00,0,weatherlink.com 1.10,2013-12-17 20:47:00,
2013-12-17 13:02:00,66.1,43.0,30.08,SSE,153,1.0,6.0,44,0.00,,,0.00,0,weatherlink.com 1.10,2013-12-17 21:02:00,
2013-12-17 13:17:00,67.9,44.0,30.07,East,85,2.0,5.0,42,0.00,,,0.00,0,weatherlink.com 1.10,2013-12-17 21:17:00,
2013-12-17 13:32:00,69.1,43.0,30.07,SE,140,0.0,3.0,39,0.00,,,0.00,0,weatherlink.com 1.10,2013-12-17 21:32:00,
2013-12-17 13:47:00,68.5,42.0,30.06,SE,126,1.0,6.0,39,0.00,,,0.00,0,weatherlink.com 1.10,2013-12-17 21:47:00,
2013-12-17 14:02:00,68.7,40.0,30.06,East,87,2.0,9.0,35,0.00,,,0.00,0,weatherlink.com 1.10,2013-12-17 22:02:00,
2013-12-17 14:17:00,69.3,40.0,30.06,ESE,117,1.0,6.0,34,0.00,,,0.00,0,weatherlink.com 1.10,2013-12-17 22:17:00,
2013-12-17 14:33:00,68.5,39.0,30.06,East,85,0.0,8.0,34,0.00,,,0.00,0,weatherlink.com 1.10,2013-12-17 22:33:00,
2013-12-17 14:48:00,68.4,43.0,30.06,ENE,76,0.0,4.0,40,0.00,,,0.00,0,weatherlink.com 1.10,2013-12-17 22:48:00,
2013-12-17 15:03:00,68.3,43.0,30.06,West,265,0.0,4.0,40,0.00,,,0.00,0,weatherlink.com 1.10,2013-12-17 23:03:00,
2013-12-17 15:18:00,67.8,40.0,30.05,NE,44,1.0,4.0,37,0.00,,,0.00,0,weatherlink.com 1.10,2013-12-17 23:18:00,
2013-12-17 15:33:00,67.1,38.0,30.05,NNW,344,1.0,5.0,35,0.00,,,0.00,0,weatherlink.com 1.10,2013-12-17 23:33:00,
2013-12-17 15:48:00,66.3,38.0,30.05,South,178,0.0,7.0,35,0.00,,,0.00,0,weatherlink.com 1.10,2013-12-17 23:48:00,
2013-12-17 16:03:00,66.1,38.0,30.05,ESE,103,3.0,9.0,36,0.00,,,0.00,0,weatherlink.com 1.10,2013-12-18 00:03:00,
2013-12-17 16:18:00,65.8,40.0,30.05,SE,146,1.0,2.0,39,0.00,,,0.00,0,weatherlink.com 1.10,2013-12-18 00:18:00,
2013-12-17 16:33:00,63.9,41.0,30.04,SE,144,0.0,1.0,43,0.00,,,0.00,0,weatherlink.com 1.10,2013-12-18 00:33:00,
2013-12-17 16:48:00,62.1,43.0,30.04,SW,234,0.0,2.0,50,0.00,,,0.00,0,weatherlink.com 1.10,2013-12-18 00:48:00,
2013-12-17 17:03:00,60.2,42.0,30.04,SW,232,0.0,0.0,52,0.00,,,0.00,0,weatherlink.com 1.10,2013-12-18 01:03:00,
2013-12-17 17:18:00,58.8,42.0,30.04,NNE,30,0.0,1.0,54,0.00,,,0.00,0,weatherlink.com 1.10,2013-12-18 01:18:00,
2013-12-17 17:33:00,58.6,41.0,30.04,NNE,30,0.0,0.0,53,0.00,,,0.00,0,weatherlink.com 1.10,2013-12-18 01:33:00,
2013-12-17 17:48:00,58.2,41.0,30.05,NNE,30,0.0,1.0,54,0.00,,,0.00,0,weatherlink.com 1.10,2013-12-18 01:48:00,
2013-12-17 18:03:00,58.0,40.0,30.04,NE,35,0.0,1.0,51,0.00,,,0.00,0,weatherlink.com 1.10,2013-12-18 02:03:00,
2013-12-17 18:18:00,58.0,40.0,30.05,NE,35,0.0,0.0,51,0.00,,,0.00,0,weatherlink.com 1.10,2013-12-18 02:18:00,
2013-12-17 18:33:00,57.7,41.0,30.05,NE,35,0.0,1.0,54,0.00,,,0.00,0,weatherlink.com 1.10,2013-12-18 02:33:00,
2013-12-17 18:48:00,57.3,41.0,30.05,NE,42,1.0,1.0,54,0.00,,,0.00,0,weatherlink.com 1.10,2013-12-18 02:48:00,
2013-12-17 19:03:00,57.5,40.0,30.05,NE,37,1.0,2.0,52,0.00,,,0.00,0,weatherlink.com 1.10,2013-12-18 03:03:00,
2013-12-17 19:18:00,57.2,39.0,30.05,NNE,17,0.0,2.0,51,0.00,,,0.00,0,weatherlink.com 1.10,2013-12-18 03:18:00,
2013-12-17 19:33:00,57.4,41.0,30.04,ESE,122,0.0,1.0,54,0.00,,,0.00,0,weatherlink.com 1.10,2013-12-18 03:33:00,
2013-12-17 19:48:00,56.7,41.0,30.04,NE,39,0.0,1.0,57,0.00,,,0.00,0,weatherlink.com 1.10,2013-12-18 03:48:00,
2013-12-17 20:03:00,56.0,41.0,30.04,SE,144,0.0,1.0,58,0.00,,,0.00,0,weatherlink.com 1.10,2013-12-18 04:03:00,
2013-12-17 20:18:00,55.0,42.0,30.04,ESE,121,0.0,0.0,62,0.00,,,0.00,0,weatherlink.com 1.10,2013-12-18 04:18:00,
2013-12-17 20:33:00,55.2,43.0,30.04,ESE,103,0.0,1.0,64,0.00,,,0.00,0,weatherlink.com 1.10,2013-12-18 04:33:00,
2013-12-17 20:48:00,54.9,40.0,30.04,West,269,1.0,1.0,58,0.00,,,0.00,0,weatherlink.com 1.10,2013-12-18 04:48:00,
2013-12-17 21:03:00,57.3,36.0,30.03,ENE,62,0.0,1.0,45,0.00,,,0.00,0,weatherlink.com 1.10,2013-12-18 05:03:00,
2013-12-17 21:18:00,57.6,34.0,30.03,ESE,122,0.0,2.0,41,0.00,,,0.00,0,weatherlink.com 1.10,2013-12-18 05:18:00,
2013-12-17 21:33:00,58.0,33.0,30.03,SSE,168,2.0,3.0,39,0.00,,,0.00,0,weatherlink.com 1.10,2013-12-18 05:33:00,
2013-12-17 21:48:00,57.1,34.0,30.03,South,176,0.0,0.0,42,0.00,,,0.00,0,weatherlink.com 1.10,2013-12-18 05:48:00,
2013-12-17 22:03:00,56.5,36.0,30.03,South,191,0.0,1.0,46,0.00,,,0.00,0,weatherlink.com 1.10,2013-12-18 06:03:00,
2013-12-17 22:18:00,54.1,39.0,30.03,SE,136,0.0,1.0,58,0.00,,,0.00,0,weatherlink.com 1.10,2013-12-18 06:18:00,
2013-12-17 22:33:00,54.1,40.0,30.04,ESE,123,0.0,0.0,60,0.00,,,0.00,0,weatherlink.com 1.10,2013-12-18 06:33:00,
2013-12-17 22:48:00,55.1,34.0,30.02,NE,42,0.0,2.0,45,0.00,,,0.00,0,weatherlink.com 1.10,2013-12-18 06:48:00,
2013-12-17 23:03:00,55.1,38.0,30.03,East,90,0.0,2.0,52,0.00,,,0.00,0,weatherlink.com 1.10,2013-12-18 07:03:00,
2013-12-17 23:18:00,55.1,36.0,30.02,NE,42,0.0,1.0,49,0.00,,,0.00,0,weatherlink.com 1.10,2013-12-18 07:18:00,
2013-12-17 23:33:00,53.9,38.0,30.02,SE,139,0.0,1.0,56,0.00,,,0.00,0,weatherlink.com 1.10,2013-12-18 07:33:00,
2013-12-17 23:48:00,53.5,40.0,30.02,NE,55,0.0,1.0,61,0.00,,,0.00,0,weatherlink.com 1.10,2013-12-18 07:48:00,